createdAt,value
2023-09-05T00:01:37.338Z,16.06
2023-09-05T00:04:04.131Z,16.13
2023-09-05T00:06:30.852Z,16.13
2023-09-05T00:08:57.483Z,16.13
2023-09-05T00:11:24.092Z,16.06
2023-09-05T00:13:50.702Z,16.13
2023-09-05T00:16:17.291Z,16.13
2023-09-05T00:18:45.062Z,16.06
2023-09-05T00:21:11.856Z,16.06
2023-09-05T00:23:40.732Z,16.13
2023-09-05T00:26:07.345Z,16.06
2023-09-05T00:28:34.315Z,16.00
2023-09-05T00:31:02.279Z,15.94
2023-09-05T00:33:32.694Z,15.88
2023-09-05T00:35:59.369Z,15.88
2023-09-05T00:38:26.001Z,15.94
2023-09-05T00:40:52.755Z,16.00
2023-09-05T00:43:20.524Z,15.94
2023-09-05T00:45:53.276Z,15.69
2023-09-05T00:48:28.756Z,15.56
2023-09-05T00:50:57.633Z,15.56
2023-09-05T00:53:28.396Z,15.38
2023-09-05T00:55:55.308Z,15.31
2023-09-05T00:58:21.954Z,15.25
2023-09-05T01:00:48.609Z,15.19
2023-09-05T01:03:15.326Z,15.19
2023-09-05T01:05:47.595Z,15.19
2023-09-05T01:08:24.317Z,15.31
2023-09-05T01:11:00.651Z,15.31
2023-09-05T01:13:28.699Z,15.44
2023-09-05T01:15:55.864Z,15.44
2023-09-05T01:18:22.610Z,15.44
2023-09-05T01:21:07.318Z,15.44
2023-09-05T01:23:53.613Z,15.38
2023-09-05T01:26:20.500Z,15.31
2023-09-05T01:28:48.133Z,15.13
2023-09-05T01:31:16.735Z,15.00
2023-09-05T01:33:43.418Z,14.94
2023-09-05T01:36:10.043Z,14.88
2023-09-05T01:38:36.789Z,14.94
2023-09-05T01:41:03.422Z,14.69
2023-09-05T01:43:30.048Z,14.75
2023-09-05T01:45:56.637Z,14.69
2023-09-05T01:48:23.200Z,14.69
2023-09-05T01:50:49.763Z,14.81
2023-09-05T01:53:16.321Z,14.81
2023-09-05T01:55:43.140Z,14.69
2023-09-05T01:58:09.713Z,14.75
2023-09-05T02:00:36.416Z,14.75
2023-09-05T02:03:03.168Z,14.94
2023-09-05T02:05:29.783Z,14.94
2023-09-05T02:07:57.419Z,15.13
2023-09-05T02:10:24.038Z,15.13
2023-09-05T02:12:51.250Z,15.13
2023-09-05T02:15:17.876Z,15.13
2023-09-05T02:17:45.036Z,15.06
2023-09-05T02:20:11.812Z,15.06
2023-09-05T02:22:38.401Z,14.88
2023-09-05T02:25:05.317Z,14.75
2023-09-05T02:27:31.908Z,14.81
2023-09-05T02:30:02.326Z,15.00
2023-09-05T02:32:32.089Z,15.13
2023-09-05T02:35:01.812Z,15.00
2023-09-05T02:37:28.881Z,14.94
2023-09-05T02:39:55.544Z,14.94
2023-09-05T02:42:22.182Z,14.88
2023-09-05T02:44:52.340Z,14.63
2023-09-05T02:47:18.996Z,14.63
2023-09-05T02:49:45.612Z,14.44
2023-09-05T02:52:13.211Z,14.44
2023-09-05T02:54:39.859Z,14.56
2023-09-05T02:57:06.428Z,14.44
2023-09-05T02:59:33.377Z,14.38
2023-09-05T03:01:59.976Z,14.50
2023-09-05T03:04:27.829Z,14.44
2023-09-05T03:06:54.455Z,14.56
2023-09-05T03:09:21.043Z,14.69
2023-09-05T03:11:47.608Z,14.69
2023-09-05T03:14:14.269Z,14.63
2023-09-05T03:16:41.062Z,14.69
2023-09-05T03:19:08.018Z,14.63
2023-09-05T03:21:34.668Z,14.56
2023-09-05T03:24:01.377Z,14.44
2023-09-05T03:26:27.962Z,14.38
2023-09-05T03:28:54.621Z,14.38
2023-09-05T03:31:21.412Z,14.31
2023-09-05T03:33:48.804Z,14.19
2023-09-05T03:36:15.471Z,14.25
2023-09-05T03:38:42.015Z,14.38
2023-09-05T03:41:09.760Z,14.38
2023-09-05T03:43:36.378Z,14.19
2023-09-05T03:46:03.202Z,14.13
2023-09-05T03:48:29.881Z,14.06
2023-09-05T03:50:56.783Z,14.06
2023-09-05T03:53:23.652Z,14.06
2023-09-05T03:55:50.528Z,14.19
2023-09-05T03:58:17.578Z,14.19
2023-09-05T04:00:44.226Z,14.13
2023-09-05T04:03:12.185Z,14.19
2023-09-05T04:05:38.899Z,14.00
2023-09-05T04:08:10.117Z,13.88
2023-09-05T04:10:37.816Z,13.81
2023-09-05T04:13:04.576Z,13.88
2023-09-05T04:15:31.553Z,13.94
2023-09-05T04:17:58.194Z,13.81
2023-09-05T04:20:24.934Z,13.75
2023-09-05T04:22:51.506Z,13.69
2023-09-05T04:25:18.193Z,13.81
2023-09-05T04:27:44.928Z,13.75
2023-09-05T04:30:14.171Z,13.75
2023-09-05T04:32:43.983Z,13.63
2023-09-05T04:35:10.627Z,13.75
2023-09-05T04:37:37.374Z,13.69
2023-09-05T04:40:04.963Z,13.50
2023-09-05T04:42:31.563Z,13.44
2023-09-05T04:44:58.104Z,13.31
2023-09-05T04:47:29.438Z,13.25
2023-09-05T04:49:59.006Z,13.25
2023-09-05T04:52:30.215Z,13.19
2023-09-05T04:54:58.705Z,13.19
2023-09-05T04:57:26.300Z,13.13
2023-09-05T04:59:58.417Z,13.06
2023-09-05T05:02:26.820Z,13.06
2023-09-05T05:04:54.678Z,13.13
2023-09-05T05:07:21.767Z,12.94
2023-09-05T05:09:49.086Z,12.94
2023-09-05T05:12:18.158Z,13.06
2023-09-05T05:14:45.059Z,13.13
2023-09-05T05:17:14.078Z,13.13
2023-09-05T05:19:41.180Z,13.44
2023-09-05T05:22:08.224Z,13.50
2023-09-05T05:24:34.858Z,13.50
2023-09-05T05:27:01.468Z,13.56
2023-09-05T05:29:33.220Z,13.88
2023-09-05T05:32:01.929Z,14.38
2023-09-05T05:34:29.176Z,14.75
2023-09-05T05:36:55.721Z,15.06
2023-09-05T05:39:23.876Z,15.31
2023-09-05T05:41:50.624Z,15.44
2023-09-05T05:44:17.300Z,15.44
2023-09-05T05:46:44.103Z,15.44
2023-09-05T05:49:11.037Z,15.50
2023-09-05T05:51:38.347Z,15.63
2023-09-05T05:54:05.058Z,15.69
2023-09-05T05:56:31.718Z,15.69
2023-09-05T05:58:58.338Z,15.69
2023-09-05T06:01:25.003Z,15.69
2023-09-05T06:03:51.706Z,15.69
2023-09-05T06:06:20.094Z,15.63
2023-09-05T06:08:46.842Z,15.69
2023-09-05T06:11:13.395Z,15.75
2023-09-05T06:13:39.986Z,15.81
2023-09-05T06:16:06.618Z,15.94
2023-09-05T06:18:33.352Z,16.00
2023-09-05T06:21:00.017Z,16.19
2023-09-05T06:23:26.725Z,16.38
2023-09-05T06:25:53.293Z,16.31
2023-09-05T06:28:19.886Z,16.50
2023-09-05T06:30:46.532Z,16.63
2023-09-05T06:33:13.306Z,16.69
2023-09-05T06:35:40.301Z,16.69
2023-09-05T06:38:07.092Z,16.81
2023-09-05T06:40:33.983Z,16.88
2023-09-05T06:43:03.879Z,17.00
2023-09-05T06:45:30.581Z,17.00
2023-09-05T06:47:57.278Z,17.13
2023-09-05T06:50:25.163Z,17.31
2023-09-05T06:52:51.818Z,17.38
2023-09-05T06:55:18.556Z,17.63
2023-09-05T06:57:45.157Z,17.75
2023-09-05T07:00:12.253Z,17.81
2023-09-05T07:02:38.922Z,17.81
2023-09-05T07:05:06.110Z,17.81
2023-09-05T07:07:32.832Z,18.06
2023-09-05T07:10:00.352Z,18.25
2023-09-05T07:12:27.080Z,18.31
2023-09-05T07:14:54.025Z,18.50
2023-09-05T07:17:20.566Z,18.69
2023-09-05T07:19:47.977Z,18.88
2023-09-05T07:22:14.861Z,19.13
2023-09-05T07:24:41.602Z,19.19
2023-09-05T07:27:08.232Z,19.50
2023-09-05T07:29:34.849Z,19.75
2023-09-05T07:32:02.748Z,19.88
2023-09-05T07:34:29.883Z,19.88
2023-09-05T07:36:57.858Z,19.94
2023-09-05T07:39:25.900Z,20.31
2023-09-05T07:41:52.774Z,20.44
2023-09-05T07:44:20.727Z,20.75
2023-09-05T07:46:47.873Z,20.63
2023-09-05T07:49:16.856Z,20.81
2023-09-05T07:51:43.906Z,20.63
2023-09-05T07:54:17.097Z,20.88
2023-09-05T07:56:43.776Z,20.81
2023-09-05T07:59:10.419Z,21.13
2023-09-05T08:01:38.303Z,20.94
2023-09-05T08:04:05.453Z,21.25
2023-09-05T08:06:32.440Z,21.19
2023-09-05T08:08:59.131Z,21.38
2023-09-05T08:11:26.870Z,21.44
2023-09-05T08:13:54.580Z,21.44
2023-09-05T08:16:23.360Z,21.25
2023-09-05T08:18:50.039Z,21.38
2023-09-05T08:21:17.645Z,21.50
2023-09-05T08:23:45.322Z,21.63
2023-09-05T08:26:12.704Z,21.81
2023-09-05T08:28:43.426Z,21.94
2023-09-05T08:31:18.454Z,22.06
2023-09-05T08:33:45.844Z,22.06
2023-09-05T08:36:12.494Z,21.81
2023-09-05T08:38:39.238Z,21.94
2023-09-05T08:41:08.034Z,21.88
2023-09-05T08:43:36.703Z,22.06
2023-09-05T08:46:03.948Z,22.25
2023-09-05T08:48:47.530Z,22.38
2023-09-05T08:51:19.700Z,22.44
2023-09-05T08:53:53.995Z,22.50
2023-09-05T08:56:21.672Z,22.63
2023-09-05T08:58:52.889Z,22.69
2023-09-05T09:01:21.873Z,22.69
2023-09-05T09:03:50.596Z,22.75
2023-09-05T09:06:17.302Z,22.81
2023-09-05T09:08:45.312Z,22.81
2023-09-05T09:11:12.736Z,22.81
2023-09-05T09:13:42.640Z,23.13
2023-09-05T09:16:09.368Z,23.06
2023-09-05T09:18:36.033Z,23.25
2023-09-05T09:21:06.084Z,23.25
2023-09-05T09:23:36.402Z,23.50
2023-09-05T09:26:04.270Z,23.50
2023-09-05T09:28:35.105Z,23.50
2023-09-05T09:31:04.626Z,23.50
2023-09-05T09:33:33.482Z,23.63
2023-09-05T09:36:06.361Z,23.63
2023-09-05T09:38:33.764Z,23.69
2023-09-05T09:41:02.357Z,23.94
2023-09-05T09:43:30.397Z,24.13
2023-09-05T09:46:01.924Z,24.06
2023-09-05T09:48:30.421Z,24.13
2023-09-05T09:50:58.493Z,24.13
2023-09-05T09:53:45.284Z,24.31
2023-09-05T09:56:13.574Z,24.50
2023-09-05T09:58:43.723Z,24.63
2023-09-05T10:01:12.339Z,24.56
2023-09-05T10:03:41.914Z,24.81
2023-09-05T10:06:10.042Z,24.88
2023-09-05T10:08:42.019Z,24.88
2023-09-05T10:19:19.038Z,25.25
2023-09-05T10:21:48.765Z,25.25
2023-09-05T10:24:17.073Z,25.38
2023-09-05T10:26:43.673Z,25.56
2023-09-05T10:29:41.846Z,25.63
2023-09-05T10:32:09.316Z,25.44
2023-09-05T10:34:59.975Z,25.63
2023-09-05T10:37:29.589Z,25.69
2023-09-05T10:39:58.768Z,25.88
2023-09-05T10:42:32.102Z,26.06
2023-09-05T10:45:23.252Z,25.88
2023-09-05T10:47:56.817Z,26.06
2023-09-05T10:50:24.586Z,25.94
2023-09-05T10:53:12.182Z,26.19
2023-09-05T10:55:45.880Z,26.19
2023-09-05T10:58:47.772Z,26.19
2023-09-05T11:01:33.391Z,26.31
2023-09-05T11:04:08.479Z,26.44
2023-09-05T11:06:39.524Z,26.63
2023-09-05T11:09:07.479Z,26.63
2023-09-05T11:11:38.016Z,26.63
2023-09-05T11:14:05.299Z,26.63
2023-09-05T11:17:02.384Z,26.94
2023-09-05T11:19:43.566Z,26.81
2023-09-05T11:22:13.182Z,27.06
2023-09-05T11:24:47.446Z,27.25
2023-09-05T11:27:23.378Z,27.19
2023-09-05T11:29:52.636Z,27.19
2023-09-05T11:32:19.873Z,27.13
2023-09-05T11:34:48.399Z,27.06
2023-09-05T11:37:17.742Z,27.06
2023-09-05T11:39:44.562Z,27.13
2023-09-05T11:42:33.472Z,27.38
2023-09-05T11:45:00.350Z,27.00
2023-09-05T11:47:28.591Z,27.06
2023-09-05T11:49:56.236Z,27.19
2023-09-05T11:52:24.810Z,27.00
2023-09-05T11:54:53.230Z,27.25
2023-09-05T11:57:21.385Z,27.31
2023-09-05T11:59:48.881Z,27.38
2023-09-05T12:02:19.346Z,27.38
2023-09-05T12:04:48.729Z,27.25
2023-09-05T12:07:15.404Z,27.25
2023-09-05T12:09:43.033Z,27.25
2023-09-05T12:12:14.973Z,27.44
2023-09-05T12:14:49.682Z,27.56
2023-09-05T12:17:24.717Z,27.56
2023-09-05T12:19:54.474Z,27.69
2023-09-05T12:22:22.740Z,27.63
2023-09-05T12:24:54.276Z,27.56
2023-09-05T12:27:27.438Z,27.63
2023-09-05T12:29:56.610Z,27.63
2023-09-05T12:32:27.835Z,27.63
2023-09-05T12:34:54.921Z,27.81
2023-09-05T12:37:22.173Z,27.75
2023-09-05T12:39:49.561Z,27.69
2023-09-05T12:42:16.257Z,27.75
2023-09-05T12:44:42.831Z,27.81
2023-09-05T12:47:09.983Z,27.88
2023-09-05T12:49:39.374Z,27.88
2023-09-05T12:52:06.469Z,27.81
2023-09-05T12:54:33.116Z,27.88
2023-09-05T12:56:59.697Z,27.75
2023-09-05T12:59:27.788Z,27.69
2023-09-05T13:01:55.100Z,28.00
2023-09-05T13:04:21.847Z,28.00
2023-09-05T13:06:48.740Z,28.00
2023-09-05T13:09:15.763Z,27.94
2023-09-05T13:11:42.433Z,27.81
2023-09-05T13:14:09.176Z,27.81
2023-09-05T13:16:36.464Z,27.88
2023-09-05T13:19:03.347Z,27.88
2023-09-05T13:21:31.351Z,27.88
2023-09-05T13:23:59.461Z,27.88
2023-09-05T13:26:26.420Z,27.81
2023-09-05T13:28:53.159Z,27.81
2023-09-05T13:31:19.814Z,27.88
2023-09-05T13:33:46.622Z,28.19
2023-09-05T13:36:13.307Z,28.19
2023-09-05T13:38:40.880Z,28.38
2023-09-05T13:41:07.493Z,28.50
2023-09-05T13:43:34.104Z,28.56
2023-09-05T13:46:00.773Z,28.44
2023-09-05T13:48:28.461Z,28.44
2023-09-05T13:50:55.336Z,28.44
2023-09-05T13:53:22.129Z,28.13
2023-09-05T13:55:48.831Z,28.44
2023-09-05T13:58:15.392Z,28.25
2023-09-05T14:00:42.172Z,28.13
2023-09-05T14:03:09.024Z,28.31
2023-09-05T14:05:36.729Z,28.69
2023-09-05T14:08:03.582Z,28.88
2023-09-05T14:10:30.189Z,28.50
2023-09-05T14:12:56.776Z,28.38
2023-09-05T14:15:23.479Z,28.31
2023-09-05T14:17:50.101Z,28.81
2023-09-05T14:20:16.832Z,28.63
2023-09-05T14:22:43.947Z,28.81
2023-09-05T14:25:10.519Z,28.63
2023-09-05T14:27:37.179Z,28.63
2023-09-05T14:30:06.625Z,28.31
2023-09-05T14:32:33.398Z,28.63
2023-09-05T14:34:59.999Z,28.56
2023-09-05T14:37:27.119Z,28.44
2023-09-05T14:39:54.382Z,28.81
2023-09-05T14:42:21.684Z,28.63
2023-09-05T14:44:48.438Z,28.81
2023-09-05T14:47:16.533Z,28.56
2023-09-05T14:49:43.195Z,28.69
2023-09-05T14:52:09.900Z,28.63
2023-09-05T14:54:36.604Z,28.56
2023-09-05T14:57:03.471Z,28.31
2023-09-05T14:59:30.097Z,27.94
2023-09-05T15:01:56.785Z,28.19
2023-09-05T15:04:23.633Z,28.25
2023-09-05T15:06:50.327Z,28.31
2023-09-05T15:09:17.647Z,28.25
2023-09-05T15:11:46.149Z,28.38
2023-09-05T15:14:12.834Z,28.38
2023-09-05T15:16:39.533Z,28.19
2023-09-05T15:19:07.244Z,28.00
2023-09-05T15:21:36.945Z,28.13
2023-09-05T15:24:07.191Z,27.88
2023-09-05T15:26:36.844Z,27.44
2023-09-05T15:29:04.787Z,27.56
2023-09-05T15:31:31.410Z,27.69
2023-09-05T15:33:58.195Z,27.94
2023-09-05T15:36:24.930Z,27.88
2023-09-05T15:38:51.685Z,27.50
2023-09-05T15:41:18.344Z,27.50
2023-09-05T15:43:44.968Z,27.31
2023-09-05T15:46:12.249Z,27.06
2023-09-05T15:48:39.075Z,27.06
2023-09-05T15:51:07.353Z,27.00
2023-09-05T15:53:34.068Z,27.06
2023-09-05T15:56:00.700Z,27.31
2023-09-05T15:58:27.925Z,26.81
2023-09-05T16:00:56.413Z,27.25
2023-09-05T16:03:27.047Z,27.50
2023-09-05T16:05:56.747Z,27.50
2023-09-05T16:08:29.968Z,27.31
2023-09-05T16:11:21.352Z,26.94
2023-09-05T16:13:51.091Z,27.13
2023-09-05T16:16:18.347Z,26.63
2023-09-05T16:18:46.106Z,26.63
2023-09-05T16:21:13.218Z,26.88
2023-09-05T16:23:43.657Z,26.63
2023-09-05T16:26:10.516Z,26.75
2023-09-05T16:28:37.204Z,26.50
2023-09-05T16:31:04.309Z,26.31
2023-09-05T16:33:30.950Z,26.25
2023-09-05T16:36:08.392Z,26.13
2023-09-05T16:38:36.053Z,26.38
2023-09-05T16:41:10.406Z,26.75
2023-09-05T16:43:38.030Z,26.94
2023-09-05T16:46:04.789Z,27.06
2023-09-05T16:48:31.548Z,26.56
2023-09-05T16:50:59.152Z,26.19
2023-09-05T16:53:25.785Z,26.13
2023-09-05T16:55:53.113Z,26.13
2023-09-05T16:58:19.740Z,26.06
2023-09-05T17:00:46.501Z,25.94
2023-09-05T17:03:14.624Z,25.81
2023-09-05T17:05:41.303Z,25.56
2023-09-05T17:08:08.734Z,25.63
2023-09-05T17:10:36.458Z,25.56
2023-09-05T17:13:03.230Z,25.44
2023-09-05T17:15:30.027Z,25.50
2023-09-05T17:17:56.818Z,25.38
2023-09-05T17:20:24.565Z,25.31
2023-09-05T17:22:51.236Z,25.25
2023-09-05T17:25:17.789Z,25.13
2023-09-05T17:27:46.492Z,25.06
2023-09-05T17:30:13.616Z,24.81
2023-09-05T17:32:40.285Z,24.81
2023-09-05T17:35:07.250Z,24.69
2023-09-05T17:37:33.981Z,24.63
2023-09-05T17:40:00.615Z,24.63
2023-09-05T17:42:27.224Z,24.81
2023-09-05T17:44:53.949Z,24.81
2023-09-05T17:47:20.616Z,24.63
2023-09-05T17:49:47.264Z,24.63
2023-09-05T17:52:14.641Z,24.56
2023-09-05T17:54:41.921Z,24.50
2023-09-05T17:57:08.662Z,24.50
2023-09-05T17:59:35.919Z,24.13
2023-09-05T18:02:02.643Z,23.81
2023-09-05T18:04:29.583Z,23.56
2023-09-05T18:06:56.385Z,23.31
2023-09-05T18:09:22.983Z,23.25
2023-09-05T18:11:49.618Z,22.81
2023-09-05T18:14:19.047Z,22.50
2023-09-05T18:16:46.473Z,22.31
2023-09-05T18:19:14.807Z,22.06
2023-09-05T18:21:44.841Z,22.00
2023-09-05T18:24:12.330Z,21.94
2023-09-05T18:26:39.110Z,21.88
2023-09-05T18:29:09.619Z,21.81
2023-09-05T18:31:36.722Z,21.94
2023-09-05T18:34:04.927Z,21.88
2023-09-05T18:36:31.599Z,21.69
2023-09-05T18:38:59.108Z,21.44
2023-09-05T18:41:25.828Z,21.56
2023-09-05T18:43:52.471Z,21.44
2023-09-05T18:46:19.363Z,21.44
2023-09-05T18:48:46.763Z,21.38
2023-09-05T18:51:17.956Z,21.06
2023-09-05T18:53:47.054Z,20.94
2023-09-05T18:56:13.895Z,20.88
2023-09-05T18:58:40.528Z,20.75
2023-09-05T19:01:07.698Z,20.50
2023-09-05T19:03:34.658Z,20.44
2023-09-05T19:06:01.444Z,20.38
2023-09-05T19:08:29.238Z,20.13
2023-09-05T19:10:57.044Z,20.00
2023-09-05T19:13:23.757Z,19.94
2023-09-05T19:15:50.666Z,19.94
2023-09-05T19:18:17.501Z,19.88
2023-09-05T19:20:46.326Z,19.69
2023-09-05T19:23:13.190Z,19.69
2023-09-05T19:25:40.894Z,19.44
2023-09-05T19:28:07.599Z,19.31
2023-09-05T19:30:34.203Z,19.13
2023-09-05T19:33:02.862Z,19.06
2023-09-05T19:35:29.627Z,19.06
2023-09-05T19:37:56.314Z,19.00
2023-09-05T19:40:23.130Z,18.94
2023-09-05T19:42:49.797Z,18.94
2023-09-05T19:45:16.566Z,19.00
2023-09-05T19:47:43.223Z,18.94
2023-09-05T19:50:10.219Z,18.88
2023-09-05T19:52:38.581Z,18.88
2023-09-05T19:55:06.278Z,18.75
2023-09-05T19:57:36.070Z,18.44
2023-09-05T20:00:02.790Z,18.63
2023-09-05T20:02:29.437Z,18.56
2023-09-05T20:04:56.050Z,18.63
2023-09-05T20:07:22.732Z,18.81
2023-09-05T20:09:49.394Z,18.88
2023-09-05T20:12:16.229Z,19.13
2023-09-05T20:14:42.847Z,19.25
2023-09-05T20:17:09.533Z,19.38
2023-09-05T20:19:36.251Z,19.44
2023-09-05T20:22:02.937Z,19.56
2023-09-05T20:24:29.571Z,19.56
2023-09-05T20:26:56.174Z,19.50
2023-09-05T20:29:24.225Z,19.38
2023-09-05T20:31:50.877Z,19.31
2023-09-05T20:34:17.614Z,19.25
2023-09-05T20:36:44.379Z,19.13
2023-09-05T20:39:11.451Z,19.13
2023-09-05T20:41:38.154Z,19.06
2023-09-05T20:44:06.345Z,19.06
2023-09-05T20:46:33.091Z,19.06
2023-09-05T20:48:59.880Z,19.00
2023-09-05T20:51:26.680Z,18.88
2023-09-05T20:53:53.579Z,18.69
2023-09-05T20:56:20.217Z,18.69
2023-09-05T20:58:46.876Z,18.75
2023-09-05T21:01:16.183Z,18.88
2023-09-05T21:03:43.007Z,18.75
2023-09-05T21:06:11.402Z,18.69
2023-09-05T21:08:39.368Z,18.56
2023-09-05T21:11:06.027Z,18.31
2023-09-05T21:13:32.707Z,18.31
2023-09-05T21:16:04.099Z,18.31
2023-09-05T21:18:31.909Z,18.25
2023-09-05T21:20:58.612Z,18.06
2023-09-05T21:23:25.531Z,17.94
2023-09-05T21:25:52.087Z,17.81
2023-09-05T21:28:18.674Z,17.63
2023-09-05T21:30:46.922Z,17.63
2023-09-05T21:33:13.615Z,17.63
2023-09-05T21:35:40.679Z,17.56
2023-09-05T21:38:07.277Z,17.50
2023-09-05T21:40:33.907Z,17.44
2023-09-05T21:43:00.629Z,17.44
2023-09-05T21:45:27.369Z,17.38
2023-09-05T21:47:54.152Z,17.31
2023-09-05T21:50:20.822Z,17.38
2023-09-05T21:52:47.505Z,17.25
2023-09-05T21:55:14.120Z,17.13
2023-09-05T21:57:40.770Z,17.00
2023-09-05T22:00:09.600Z,16.94
2023-09-05T22:02:36.255Z,16.88
2023-09-05T22:05:04.058Z,16.88
2023-09-05T22:07:30.708Z,16.81
2023-09-05T22:09:57.787Z,16.81
2023-09-05T22:12:24.558Z,16.94
2023-09-05T22:14:51.765Z,17.19
2023-09-05T22:17:18.484Z,17.19
2023-09-05T22:19:45.126Z,17.25
2023-09-05T22:22:11.975Z,17.13
2023-09-05T22:24:40.094Z,17.13
2023-09-05T22:27:06.915Z,17.06
2023-09-05T22:29:36.002Z,17.00
2023-09-05T22:32:02.706Z,17.00
2023-09-05T22:34:29.372Z,16.94
2023-09-05T22:36:56.004Z,17.00
2023-09-05T22:39:25.795Z,17.06
2023-09-05T22:41:52.468Z,17.00
2023-09-05T22:44:19.032Z,16.94
2023-09-05T22:46:45.701Z,16.81
2023-09-05T22:49:12.749Z,16.69
2023-09-05T22:51:39.335Z,16.63
2023-09-05T22:54:06.114Z,16.56
2023-09-05T22:56:33.303Z,16.44
2023-09-05T22:58:59.928Z,16.44
2023-09-05T23:01:27.252Z,16.31
2023-09-05T23:03:54.552Z,16.38
2023-09-05T23:06:21.460Z,16.31
2023-09-05T23:08:48.959Z,16.25
2023-09-05T23:11:15.755Z,16.19
2023-09-05T23:13:42.323Z,16.13
2023-09-05T23:16:09.121Z,16.13
2023-09-05T23:18:38.153Z,16.06
2023-09-05T23:21:09.537Z,16.06
2023-09-05T23:23:36.351Z,16.13
2023-09-05T23:26:04.241Z,16.06
2023-09-05T23:28:31.863Z,15.94
2023-09-05T23:31:01.892Z,15.94
2023-09-05T23:33:30.536Z,15.94
2023-09-05T23:35:57.130Z,15.94
2023-09-05T23:38:24.722Z,15.94
2023-09-05T23:40:51.317Z,15.94
2023-09-05T23:43:17.939Z,16.00
2023-09-05T23:45:52.609Z,15.94
2023-09-05T23:48:27.807Z,16.06
2023-09-05T23:50:55.005Z,16.13
2023-09-05T23:53:21.750Z,16.00
2023-09-05T23:55:50.539Z,15.94
2023-09-05T23:58:17.356Z,15.94
